createdAt,value
2022-12-17T00:02:13.110Z,16.77
2022-12-17T00:05:24.091Z,18.38
2022-12-17T00:08:34.691Z,16.75
2022-12-17T00:11:45.250Z,16.13
2022-12-17T00:14:55.453Z,18.13
2022-12-17T00:18:06.468Z,16.33
2022-12-17T00:21:19.078Z,18.13
2022-12-17T00:24:29.276Z,17.33
2022-12-17T00:27:39.526Z,18.52
2022-12-17T00:30:49.855Z,18.52
2022-12-17T00:34:00.545Z,16.77
2022-12-17T00:37:10.516Z,18.75
2022-12-17T00:40:21.049Z,18.25
2022-12-17T00:43:33.328Z,16.52
2022-12-17T00:46:43.933Z,16.15
2022-12-17T00:49:56.166Z,17.77
2022-12-17T00:53:07.059Z,17.10
2022-12-17T00:56:17.292Z,16.15
2022-12-17T00:59:27.630Z,14.10
2022-12-17T01:02:38.002Z,15.93
2022-12-17T01:05:48.379Z,17.33
2022-12-17T01:08:58.683Z,18.55
2022-12-17T01:12:09.520Z,17.92
2022-12-17T01:15:19.667Z,15.77
2022-12-17T01:18:36.447Z,14.88
2022-12-17T01:21:46.870Z,16.40
2022-12-17T01:24:56.902Z,16.50
2022-12-17T01:28:08.897Z,15.48
2022-12-17T01:31:20.100Z,13.98
2022-12-17T01:34:30.567Z,15.65
2022-12-17T01:37:41.416Z,16.95
2022-12-17T01:40:51.730Z,14.55
2022-12-17T01:44:02.389Z,14.20
2022-12-17T01:47:20.013Z,14.98
2022-12-17T01:50:32.507Z,15.82
2022-12-17T01:53:50.209Z,17.45
2022-12-17T01:57:02.144Z,18.25
2022-12-17T02:00:18.166Z,15.65
2022-12-17T02:03:37.425Z,13.50
2022-12-17T02:06:52.306Z,13.63
2022-12-17T02:10:17.805Z,12.77
2022-12-17T02:13:39.751Z,12.70
2022-12-17T02:16:54.777Z,15.00
2022-12-17T02:20:10.786Z,13.10
2022-12-17T02:23:24.001Z,13.60
2022-12-17T02:26:53.960Z,13.35
2022-12-17T02:30:12.434Z,15.10
2022-12-17T02:33:23.304Z,14.15
2022-12-17T02:36:33.431Z,13.75
2022-12-17T02:39:43.694Z,13.90
2022-12-17T02:42:54.334Z,13.18
2022-12-17T02:46:05.148Z,15.05
2022-12-17T02:49:15.455Z,15.07
2022-12-17T02:52:29.516Z,14.30
2022-12-17T02:55:43.693Z,13.57
2022-12-17T02:58:53.908Z,14.55
2022-12-17T03:02:04.356Z,13.48
2022-12-17T03:05:42.802Z,12.55
2022-12-17T03:08:44.968Z,14.82
2022-12-17T03:11:55.369Z,14.13
2022-12-17T03:15:19.229Z,15.55
2022-12-17T03:18:29.850Z,13.68
2022-12-17T03:21:40.068Z,14.05
2022-12-17T03:24:50.319Z,15.25
2022-12-17T03:28:00.407Z,14.70
2022-12-17T03:31:10.816Z,13.85
2022-12-17T03:34:21.751Z,15.20
2022-12-17T03:37:32.354Z,15.93
2022-12-17T03:40:42.567Z,15.63
2022-12-17T03:43:52.690Z,15.68
2022-12-17T03:47:03.131Z,14.95
2022-12-17T03:50:13.371Z,14.43
2022-12-17T03:53:23.651Z,15.98
2022-12-17T03:56:33.888Z,16.65
2022-12-17T03:59:44.138Z,16.05
2022-12-17T04:02:54.489Z,16.80
2022-12-17T04:06:04.933Z,16.55
2022-12-17T04:09:15.267Z,16.80
2022-12-17T04:12:25.479Z,17.83
2022-12-17T04:15:35.978Z,17.95
2022-12-17T04:18:46.180Z,16.75
2022-12-17T04:21:56.244Z,19.08
2022-12-17T04:25:06.508Z,17.02
2022-12-17T04:28:16.675Z,18.88
2022-12-17T04:31:26.927Z,16.90
2022-12-17T04:34:37.194Z,17.58
2022-12-17T04:37:47.449Z,18.35
2022-12-17T04:40:57.639Z,16.23
2022-12-17T04:44:08.008Z,18.00
2022-12-17T04:47:18.361Z,17.42
2022-12-17T04:50:28.460Z,18.88
2022-12-17T04:53:39.048Z,17.42
2022-12-17T04:56:49.483Z,19.77
2022-12-17T04:59:59.676Z,19.63
2022-12-17T05:03:09.936Z,17.75
2022-12-17T05:06:20.850Z,20.35
2022-12-17T05:09:30.944Z,18.48
2022-12-17T05:12:41.055Z,18.63
2022-12-17T05:15:53.269Z,19.00
2022-12-17T05:19:03.752Z,17.33
2022-12-17T05:22:14.051Z,17.73
2022-12-17T05:25:24.569Z,18.10
2022-12-17T05:28:34.744Z,17.10
2022-12-17T05:31:45.129Z,15.60
2022-12-17T05:34:56.050Z,16.52
2022-12-17T05:38:07.370Z,15.05
2022-12-17T05:41:18.591Z,17.98
2022-12-17T05:44:28.625Z,17.98
2022-12-17T05:47:38.879Z,18.17
2022-12-17T05:50:49.179Z,16.42
2022-12-17T05:53:59.306Z,16.85
2022-12-17T05:57:09.981Z,16.40
2022-12-17T06:00:20.148Z,20.13
2022-12-17T06:03:30.484Z,19.48
2022-12-17T06:06:40.819Z,21.17
2022-12-17T06:09:51.509Z,18.38
2022-12-17T06:13:01.621Z,20.20
2022-12-17T06:16:12.216Z,19.10
2022-12-17T06:19:22.355Z,20.20
2022-12-17T06:22:32.545Z,22.10
2022-12-17T06:25:42.722Z,18.92
2022-12-17T06:28:52.884Z,20.95
2022-12-17T06:32:03.024Z,20.95
2022-12-17T06:35:13.123Z,20.10
2022-12-17T06:38:25.458Z,21.20
2022-12-17T06:41:35.476Z,18.70
2022-12-17T06:44:48.702Z,21.38
2022-12-17T06:47:58.896Z,20.88
2022-12-17T06:51:09.543Z,21.55
2022-12-17T06:54:19.558Z,21.73
2022-12-17T06:57:29.838Z,21.27
2022-12-17T07:00:40.103Z,23.38
2022-12-17T07:03:50.002Z,20.70
2022-12-17T07:07:00.107Z,22.70
2022-12-17T07:10:14.120Z,20.85
2022-12-17T07:13:26.222Z,21.38
2022-12-17T07:16:36.440Z,21.10
2022-12-17T07:19:48.492Z,21.40
2022-12-17T07:22:58.840Z,22.80
2022-12-17T07:26:08.946Z,21.98
2022-12-17T07:29:19.695Z,20.90
2022-12-17T07:32:29.937Z,25.63
2022-12-17T07:35:40.224Z,21.67
2022-12-17T07:38:50.564Z,21.92
2022-12-17T07:42:01.079Z,22.45
2022-12-17T07:45:11.335Z,21.75
2022-12-17T07:48:21.892Z,22.73
2022-12-17T07:51:32.070Z,22.20
2022-12-17T07:54:42.094Z,22.42
2022-12-17T07:57:52.501Z,21.77
2022-12-17T08:01:22.828Z,24.30
2022-12-17T08:04:33.065Z,26.08
2022-12-17T08:07:44.112Z,21.55
2022-12-17T08:10:54.684Z,21.75
2022-12-17T08:14:04.754Z,19.23
2022-12-17T08:17:15.057Z,21.58
2022-12-17T08:20:26.039Z,20.70
2022-12-17T08:23:37.592Z,23.25
2022-12-17T08:26:48.509Z,20.05
2022-12-17T08:29:58.912Z,20.52
2022-12-17T08:33:09.252Z,21.80
2022-12-17T08:36:19.523Z,21.88
2022-12-17T08:39:29.806Z,21.33
2022-12-17T08:42:40.129Z,21.95
2022-12-17T08:45:50.608Z,19.35
2022-12-17T08:49:01.673Z,21.92
2022-12-17T08:52:12.434Z,21.80
2022-12-17T08:55:26.630Z,22.50
2022-12-17T08:58:36.885Z,18.80
2022-12-17T09:01:47.350Z,20.02
2022-12-17T09:04:58.325Z,20.17
2022-12-17T09:08:16.566Z,19.98
2022-12-17T09:11:27.071Z,21.83
2022-12-17T09:14:37.426Z,21.85
2022-12-17T09:17:47.979Z,22.67
2022-12-17T09:20:58.434Z,23.35
2022-12-17T09:24:08.682Z,23.13
2022-12-17T09:27:19.378Z,19.42
2022-12-17T09:30:30.411Z,21.63
2022-12-17T09:33:41.274Z,20.83
2022-12-17T09:36:52.110Z,23.73
2022-12-17T09:40:23.276Z,21.50
2022-12-17T09:43:54.021Z,21.50
2022-12-17T09:47:36.617Z,21.92
2022-12-17T09:50:46.873Z,21.65
2022-12-17T09:54:11.583Z,23.20
2022-12-17T09:57:23.281Z,23.88
2022-12-17T10:00:42.170Z,24.67
2022-12-17T10:03:54.887Z,22.30
2022-12-17T10:07:07.736Z,20.73
2022-12-17T10:10:29.248Z,21.85
2022-12-17T10:13:42.154Z,22.05
2022-12-17T10:17:00.621Z,21.85
2022-12-17T10:20:14.009Z,22.90
2022-12-17T10:23:25.789Z,24.80
2022-12-17T10:26:44.141Z,23.85
2022-12-17T10:29:54.491Z,23.58
2022-12-17T10:33:17.163Z,24.77
2022-12-17T10:36:43.148Z,23.70
2022-12-17T10:39:54.051Z,23.88
2022-12-17T10:43:04.668Z,23.10
2022-12-17T10:46:16.674Z,24.13
2022-12-17T10:49:42.200Z,21.75
2022-12-17T10:52:52.619Z,25.67
2022-12-17T10:56:12.267Z,23.33
2022-12-17T10:59:32.158Z,24.63
2022-12-17T11:02:48.660Z,24.58
2022-12-17T11:06:19.597Z,22.58
2022-12-17T11:09:57.232Z,29.02
2022-12-17T11:13:13.482Z,25.00
2022-12-17T11:16:35.680Z,25.45
2022-12-17T11:20:05.199Z,26.65
2022-12-17T11:23:21.018Z,24.08
2022-12-17T11:26:37.486Z,25.35
2022-12-17T11:29:48.457Z,28.55
2022-12-17T11:33:16.498Z,26.77
2022-12-17T11:36:43.280Z,26.00
2022-12-17T11:40:10.066Z,26.55
2022-12-17T11:43:30.681Z,30.77
2022-12-17T11:47:08.339Z,27.98
2022-12-17T11:50:42.259Z,26.00
2022-12-17T11:54:11.139Z,29.67
2022-12-17T11:57:44.967Z,23.33
2022-12-17T12:01:14.018Z,27.45
2022-12-17T12:04:47.435Z,27.65
2022-12-17T12:08:16.993Z,26.83
2022-12-17T12:11:52.515Z,26.10
2022-12-17T12:15:15.460Z,26.38
2022-12-17T12:18:39.819Z,29.17
2022-12-17T12:22:20.340Z,27.15
2022-12-17T12:25:30.693Z,25.75
2022-12-17T12:28:56.455Z,26.85
2022-12-17T12:32:21.003Z,26.17
2022-12-17T12:35:40.140Z,26.25
2022-12-17T12:38:57.891Z,27.08
2022-12-17T12:42:14.198Z,27.92
2022-12-17T12:45:50.580Z,29.63
2022-12-17T12:49:09.883Z,27.35
2022-12-17T12:52:21.521Z,27.10
2022-12-17T12:55:31.920Z,31.05
2022-12-17T12:58:51.552Z,28.15
2022-12-17T13:02:02.937Z,27.50
2022-12-17T13:05:27.958Z,30.52
2022-12-17T13:08:20.880Z,27.08
2022-12-17T13:10:55.475Z,29.25
2022-12-17T13:13:35.192Z,26.63
2022-12-17T13:17:02.040Z,26.30
2022-12-17T13:19:42.151Z,23.88
2022-12-17T13:22:21.990Z,28.95
2022-12-17T13:25:23.801Z,25.42
2022-12-17T13:27:56.744Z,28.88
2022-12-17T13:30:37.834Z,28.27
2022-12-17T13:33:49.186Z,29.42
2022-12-17T13:37:07.498Z,27.00
2022-12-17T13:40:37.194Z,25.30
2022-12-17T13:43:33.977Z,29.00
2022-12-17T13:46:23.014Z,29.17
2022-12-17T13:49:19.466Z,27.13
2022-12-17T13:52:17.995Z,31.23
2022-12-17T13:54:53.456Z,29.13
2022-12-17T13:57:39.111Z,28.67
2022-12-17T14:00:31.447Z,27.33
2022-12-17T14:03:12.318Z,28.67
2022-12-17T14:05:51.346Z,29.55
2022-12-17T14:08:29.196Z,27.50
2022-12-17T14:11:22.320Z,26.80
2022-12-17T14:14:34.724Z,30.02
2022-12-17T14:17:21.710Z,27.30
2022-12-17T14:20:13.075Z,29.17
2022-12-17T14:23:03.296Z,28.65
2022-12-17T14:25:43.093Z,25.05
2022-12-17T14:28:35.030Z,29.45
2022-12-17T14:31:29.395Z,27.85
2022-12-17T14:34:08.532Z,28.13
2022-12-17T14:36:46.624Z,28.58
2022-12-17T14:39:30.550Z,30.48
2022-12-17T14:42:25.664Z,29.42
2022-12-17T14:45:14.354Z,27.48
2022-12-17T14:47:54.935Z,26.00
2022-12-17T14:50:33.661Z,28.23
2022-12-17T14:53:28.197Z,28.35
2022-12-17T14:56:01.379Z,27.58
2022-12-17T14:58:47.256Z,28.23
2022-12-17T15:01:20.516Z,28.63
2022-12-17T15:03:53.938Z,28.80
2022-12-17T15:06:28.406Z,30.23
2022-12-17T15:09:00.733Z,26.90
2022-12-17T15:11:35.666Z,31.30
2022-12-17T15:14:08.478Z,30.33
2022-12-17T15:16:44.309Z,31.50
2022-12-17T15:19:18.466Z,28.95
2022-12-17T15:21:53.705Z,29.58
2022-12-17T15:24:27.728Z,28.17
2022-12-17T15:27:01.707Z,30.10
2022-12-17T15:29:35.348Z,27.05
2022-12-17T15:32:17.556Z,28.30
2022-12-17T15:34:54.190Z,27.08
2022-12-17T15:37:30.165Z,28.98
2022-12-17T15:40:05.467Z,27.65
2022-12-17T15:43:04.707Z,27.77
2022-12-17T15:46:14.099Z,27.17
2022-12-17T15:48:50.392Z,30.10
2022-12-17T15:51:24.701Z,28.15
2022-12-17T15:53:58.365Z,28.77
2022-12-17T15:56:31.151Z,27.48
2022-12-17T15:59:04.058Z,29.95
2022-12-17T16:01:37.166Z,30.95
2022-12-17T16:04:16.739Z,28.98
2022-12-17T16:06:50.667Z,29.30
2022-12-17T16:09:27.136Z,28.05
2022-12-17T16:12:06.520Z,26.00
2022-12-17T16:14:39.118Z,27.15
2022-12-17T16:17:12.683Z,27.65
2022-12-17T16:19:46.480Z,27.25
2022-12-17T16:22:19.896Z,29.10
2022-12-17T16:24:52.852Z,28.08
2022-12-17T16:27:26.037Z,29.10
2022-12-17T16:29:58.647Z,30.90
2022-12-17T16:32:36.181Z,30.55
2022-12-17T16:35:09.598Z,30.00
2022-12-17T16:37:41.945Z,29.30
2022-12-17T16:40:14.336Z,27.95
2022-12-17T16:42:47.134Z,27.88
2022-12-17T16:45:19.738Z,26.38
2022-12-17T16:47:52.653Z,29.83
2022-12-17T16:50:29.799Z,28.05
2022-12-17T16:53:02.471Z,26.67
2022-12-17T16:55:46.934Z,27.75
2022-12-17T16:58:20.509Z,27.02
2022-12-17T17:01:00.421Z,28.00
2022-12-17T17:03:33.527Z,30.13
2022-12-17T17:06:10.651Z,26.73
2022-12-17T17:08:43.440Z,26.98
2022-12-17T17:11:21.683Z,28.45
2022-12-17T17:13:56.622Z,28.58
2022-12-17T17:16:30.729Z,27.70
2022-12-17T17:19:07.664Z,26.90
2022-12-17T17:21:43.071Z,29.75
2022-12-17T17:24:24.423Z,28.80
2022-12-17T17:26:57.753Z,30.08
2022-12-17T17:29:30.994Z,31.60
2022-12-17T17:32:11.594Z,30.65
2022-12-17T17:34:45.334Z,31.02
2022-12-17T17:37:20.973Z,29.77
2022-12-17T17:39:53.944Z,29.98
2022-12-17T17:42:27.100Z,28.02
2022-12-17T17:45:00.609Z,29.85
2022-12-17T17:47:37.318Z,26.08
2022-12-17T17:50:11.583Z,27.33
2022-12-17T17:52:44.887Z,29.35
2022-12-17T17:55:20.062Z,27.85
2022-12-17T17:57:54.781Z,26.33
2022-12-17T18:00:28.287Z,26.60
2022-12-17T18:03:02.262Z,27.42
2022-12-17T18:05:42.346Z,27.58
2022-12-17T18:08:15.874Z,27.02
2022-12-17T18:11:00.534Z,27.70
2022-12-17T18:13:53.790Z,32.20
2022-12-17T18:16:38.933Z,29.98
2022-12-17T18:19:16.613Z,26.48
2022-12-17T18:21:53.649Z,26.75
2022-12-17T18:24:26.562Z,27.55
2022-12-17T18:26:59.180Z,28.75
2022-12-17T18:29:33.984Z,26.00
2022-12-17T18:32:07.843Z,25.30
2022-12-17T18:34:44.849Z,25.90
2022-12-17T18:37:21.532Z,28.88
2022-12-17T18:39:56.141Z,27.13
2022-12-17T18:42:47.880Z,27.02
2022-12-17T18:45:42.151Z,25.80
2022-12-17T18:48:19.207Z,26.65
2022-12-17T18:50:52.549Z,27.50
2022-12-17T18:53:44.663Z,27.52
2022-12-17T18:56:37.864Z,28.85
2022-12-17T18:59:15.141Z,26.85
2022-12-17T19:01:52.387Z,30.05
2022-12-17T19:04:27.165Z,30.42
2022-12-17T19:07:01.289Z,30.08
2022-12-17T19:09:36.906Z,29.52
2022-12-17T19:12:17.119Z,29.02
2022-12-17T19:14:53.083Z,28.70
2022-12-17T19:17:27.777Z,29.52
2022-12-17T19:20:02.133Z,27.00
2022-12-17T19:22:42.505Z,28.95
2022-12-17T19:25:16.998Z,28.58
2022-12-17T19:27:51.445Z,28.70
2022-12-17T19:30:24.217Z,28.60
2022-12-17T19:32:57.709Z,28.80
2022-12-17T19:35:33.095Z,29.67
2022-12-17T19:38:07.483Z,27.23
2022-12-17T19:40:45.856Z,28.67
2022-12-17T19:43:24.020Z,29.25
2022-12-17T19:46:09.103Z,29.73
2022-12-17T19:48:48.982Z,27.77
2022-12-17T19:51:26.426Z,26.48
2022-12-17T19:54:08.373Z,26.95
2022-12-17T19:56:48.621Z,25.48
2022-12-17T19:59:24.302Z,27.65
2022-12-17T20:01:59.211Z,28.90
2022-12-17T20:04:35.177Z,27.60
2022-12-17T20:07:24.277Z,28.83
2022-12-17T20:09:57.531Z,29.73
2022-12-17T20:12:30.838Z,27.90
2022-12-17T20:15:04.952Z,29.42
2022-12-17T20:17:38.029Z,29.55
2022-12-17T20:20:11.125Z,29.27
2022-12-17T20:22:47.850Z,28.60
2022-12-17T20:25:24.025Z,26.25
2022-12-17T20:27:58.213Z,29.20
2022-12-17T20:30:32.029Z,31.70
2022-12-17T20:33:06.089Z,28.40
2022-12-17T20:35:40.831Z,27.33
2022-12-17T20:38:17.566Z,25.52
2022-12-17T20:40:51.491Z,26.98
2022-12-17T20:43:25.704Z,25.45
2022-12-17T20:46:03.380Z,32.40
2022-12-17T20:48:38.534Z,27.83
2022-12-17T20:51:23.141Z,25.85
2022-12-17T20:54:00.634Z,27.83
2022-12-17T20:56:36.047Z,27.67
2022-12-17T20:59:19.852Z,29.75
2022-12-17T21:01:57.750Z,26.90
2022-12-17T21:04:32.419Z,30.85
2022-12-17T21:07:14.092Z,26.63
2022-12-17T21:09:48.576Z,29.02
2022-12-17T21:12:46.364Z,28.10
2022-12-17T21:15:39.881Z,26.63
2022-12-17T21:18:21.145Z,27.90
2022-12-17T21:21:05.189Z,25.33
2022-12-17T21:23:44.572Z,27.88
2022-12-17T21:26:27.242Z,26.30
2022-12-17T21:29:12.095Z,27.27
2022-12-17T21:31:50.539Z,27.80
2022-12-17T21:34:25.905Z,28.90
2022-12-17T21:37:02.758Z,27.55
2022-12-17T21:39:36.509Z,30.73
2022-12-17T21:42:28.375Z,28.40
2022-12-17T21:45:20.353Z,27.38
2022-12-17T21:48:01.501Z,24.80
2022-12-17T21:50:42.479Z,29.17
2022-12-17T21:53:17.506Z,30.33
2022-12-17T21:55:51.577Z,27.95
2022-12-17T21:58:37.953Z,27.17
2022-12-17T22:01:18.994Z,27.85
2022-12-17T22:03:59.374Z,29.10
2022-12-17T22:06:47.694Z,25.55
2022-12-17T22:09:36.209Z,27.75
2022-12-17T22:12:35.184Z,28.27
2022-12-17T22:15:32.121Z,24.73
2022-12-17T22:18:12.225Z,28.88
2022-12-17T22:20:46.748Z,29.20
2022-12-17T22:23:35.295Z,26.75
2022-12-17T22:26:13.140Z,28.30
2022-12-17T22:28:50.392Z,26.67
2022-12-17T22:31:43.670Z,31.10
2022-12-17T22:35:22.501Z,26.88
2022-12-17T22:41:59.584Z,30.67
2022-12-17T22:44:09.893Z,27.45
2022-12-17T22:44:46.622Z,32.15
2022-12-17T22:46:26.884Z,29.02
2022-12-17T22:49:05.579Z,31.45
2022-12-17T22:51:40.693Z,29.17
2022-12-17T22:54:15.292Z,31.20
2022-12-17T22:57:35.266Z,29.70
2022-12-17T22:59:43.920Z,28.17
2022-12-17T23:02:18.843Z,28.35
2022-12-17T23:04:52.205Z,29.15
2022-12-17T23:07:31.389Z,29.52
2022-12-17T23:10:07.250Z,27.90
2022-12-17T23:12:58.979Z,27.88
2022-12-17T23:15:38.111Z,26.45
2022-12-17T23:18:18.599Z,27.95
2022-12-17T23:20:53.902Z,27.70
2022-12-17T23:23:26.504Z,27.52
2022-12-17T23:26:05.980Z,31.05
2022-12-17T23:28:43.756Z,25.80
2022-12-17T23:31:20.143Z,27.55
2022-12-17T23:33:53.455Z,27.58
2022-12-17T23:36:27.289Z,27.17
2022-12-17T23:39:01.238Z,25.83
2022-12-17T23:41:35.250Z,26.77
2022-12-17T23:44:08.828Z,27.92
2022-12-17T23:46:42.195Z,28.30
2022-12-17T23:49:18.141Z,28.60
2022-12-17T23:51:51.818Z,28.95
2022-12-17T23:54:25.487Z,26.58
2022-12-17T23:56:57.975Z,24.92
2022-12-17T23:59:33.037Z,28.23
